Hauptseite
METAR-TAF:

METAR-TAF

Flughäfen :

Flughafen Stuttgart

Stuttgart, Deutschland

Breite: 48-41N, Länge: 009-13E, Höhe: 396 m

Beobachtung

Neuester Wetterbericht von vor 33 Minuten, um 01:50 UTC
Wind 8 kt aus Nordost
Temperatur -1°C
Luftfeuchtigkeit 86%
Luftdruck 1025 hPa
Sichtweite 10 km oder mehr
keine Wolken unter 1500 m und keine Kumulonimbus oder Gewitterwolken

METAR: EDDS 180150Z 04008KT CAVOK M01/M03 Q1025

Zeit: 03:23 (02:23 UTC)

Prognose

Neuester Wetterbericht von vor 3 Stunden und 23 Minuten, um 23:00 UTC
Gültige Prognose vom 18 um 00 UTC bis 18 um 24 UTC
Wind 8 kt aus Nordost
Sichtweite 10 km oder mehr
keine Wolken unter 1500 m und keine Kumulonimbus oder Gewitterwolken

TAF: EDDS 172300Z 1800/1824 05008KT CAVOK

Wetterbeobachtungen und Prognosen von mehr als 4000 Flughäfen (METAR und TAF Bericht).

Die verfügbaren Stationen werden durch gelbe und rote Markierungen auf der Karte dargestellt.

Führen Sie die Maus auf sie, um den Namen der Station zu sehen.

Darauf klicken, um die Beobachtung von Wetterbeobachtungen und Prognosen zu sehen.

Um die Karte zu ändern : klicken Sie auf den grünen Tasten mit einem schwarzen Kreuz Zum Vergrößern, auf den grünen Button mit einem Gedankenstrich zu verkleinern, oder auf die grünen Pfeile für benachbarte Karten.


METAR-TAF: